createdAt,value
2023-02-19T00:01:16.435Z,9.80
2023-02-19T00:03:52.988Z,9.78
2023-02-19T00:06:27.410Z,9.80
2023-02-19T00:09:00.370Z,9.80
2023-02-19T00:11:35.235Z,9.84
2023-02-19T00:14:08.789Z,9.83
2023-02-19T00:16:41.647Z,9.82
2023-02-19T00:19:17.510Z,9.80
2023-02-19T00:21:52.500Z,9.84
2023-02-19T00:24:25.435Z,9.80
2023-02-19T00:26:58.171Z,9.85
2023-02-19T00:29:31.295Z,9.90
2023-02-19T00:32:05.223Z,9.91
2023-02-19T00:34:39.458Z,9.88
2023-02-19T00:37:12.345Z,9.89
2023-02-19T00:39:45.947Z,9.87
2023-02-19T00:42:18.732Z,9.89
2023-02-19T00:44:52.629Z,9.89
2023-02-19T00:47:26.310Z,9.89
2023-02-19T00:50:00.427Z,9.89
2023-02-19T00:52:33.139Z,9.87
2023-02-19T00:55:06.402Z,9.91
2023-02-19T00:57:39.245Z,9.88
2023-02-19T01:00:13.170Z,9.88
2023-02-19T01:02:46.044Z,9.88
2023-02-19T01:05:20.469Z,9.85
2023-02-19T01:07:53.368Z,9.81
2023-02-19T01:10:26.154Z,9.87
2023-02-19T01:12:58.971Z,9.89
2023-02-19T01:15:33.913Z,9.84
2023-02-19T01:18:07.435Z,9.81
2023-02-19T01:20:43.033Z,9.82
2023-02-19T01:23:15.839Z,9.83
2023-02-19T01:25:48.774Z,9.77
2023-02-19T01:28:23.792Z,9.80
2023-02-19T01:30:56.724Z,9.71
2023-02-19T01:33:29.575Z,9.71
2023-02-19T01:36:06.564Z,9.76
2023-02-19T01:38:39.357Z,9.78
2023-02-19T01:41:14.316Z,9.76
2023-02-19T01:43:57.715Z,9.74
2023-02-19T01:46:32.536Z,9.74
2023-02-19T01:49:09.078Z,9.72
2023-02-19T01:51:48.162Z,9.66
2023-02-19T01:54:24.119Z,9.72
2023-02-19T01:57:00.227Z,9.61
2023-02-19T01:59:34.110Z,9.66
2023-02-19T02:02:07.870Z,9.65
2023-02-19T02:04:42.134Z,9.66
2023-02-19T02:07:30.221Z,9.68
2023-02-19T02:10:26.400Z,9.63
2023-02-19T02:12:59.497Z,9.53
2023-02-19T02:15:43.374Z,9.56
2023-02-19T02:18:28.176Z,9.62
2023-02-19T02:21:12.705Z,9.59
2023-02-19T02:24:07.319Z,9.60
2023-02-19T02:27:06.092Z,9.58
2023-02-19T02:30:17.688Z,9.54
2023-02-19T02:32:57.451Z,9.54
2023-02-19T02:35:35.351Z,9.54
2023-02-19T02:38:11.952Z,9.52
2023-02-19T02:40:45.991Z,9.37
2023-02-19T02:43:19.889Z,9.48
2023-02-19T02:45:54.322Z,9.48
2023-02-19T02:48:38.356Z,9.47
2023-02-19T02:51:17.737Z,9.43
2023-02-19T02:54:25.475Z,9.40
2023-02-19T02:57:00.757Z,9.32
2023-02-19T02:59:40.493Z,9.42
2023-02-19T03:02:18.976Z,9.35
2023-02-19T03:05:17.842Z,9.33
2023-02-19T03:07:55.832Z,9.40
2023-02-19T03:10:36.632Z,9.32
2023-02-19T03:13:31.663Z,9.37
2023-02-19T03:16:28.674Z,9.37
2023-02-19T03:19:20.015Z,9.25
2023-02-19T03:21:57.579Z,9.33
2023-02-19T03:24:51.141Z,9.24
2023-02-19T03:27:28.100Z,9.33
2023-02-19T03:30:06.357Z,9.32
2023-02-19T03:32:43.286Z,9.25
2023-02-19T03:35:22.152Z,9.26
2023-02-19T03:38:04.808Z,9.28
2023-02-19T03:40:47.898Z,9.17
2023-02-19T03:43:25.123Z,9.26
2023-02-19T03:46:07.692Z,9.26
2023-02-19T03:48:48.853Z,9.10
2023-02-19T03:51:35.203Z,9.25
2023-02-19T03:54:21.670Z,9.23
2023-02-19T03:57:00.877Z,9.23
2023-02-19T03:59:42.477Z,9.21
2023-02-19T04:02:19.189Z,9.14
2023-02-19T04:04:58.663Z,9.20
2023-02-19T04:07:38.709Z,9.18
2023-02-19T04:10:12.541Z,9.16
2023-02-19T04:12:54.069Z,9.15
2023-02-19T04:15:31.106Z,9.06
2023-02-19T04:18:08.402Z,9.13
2023-02-19T04:20:44.877Z,9.02
2023-02-19T04:23:23.540Z,9.12
2023-02-19T04:26:00.424Z,9.00
2023-02-19T04:28:33.421Z,9.05
2023-02-19T04:31:07.247Z,9.04
2023-02-19T04:33:40.178Z,9.07
2023-02-19T04:36:13.098Z,8.92
2023-02-19T04:38:47.342Z,9.09
2023-02-19T04:41:20.206Z,9.14
2023-02-19T04:43:53.442Z,9.10
2023-02-19T04:46:26.435Z,9.12
2023-02-19T04:48:59.211Z,9.10
2023-02-19T04:51:31.959Z,9.03
2023-02-19T04:54:06.653Z,9.02
2023-02-19T04:56:40.547Z,9.01
2023-02-19T04:59:13.995Z,8.96
2023-02-19T05:01:46.935Z,9.06
2023-02-19T05:04:19.957Z,9.07
2023-02-19T05:06:52.793Z,8.94
2023-02-19T05:09:27.135Z,8.96
2023-02-19T05:12:00.245Z,8.83
2023-02-19T05:14:33.196Z,9.05
2023-02-19T05:17:06.219Z,9.05
2023-02-19T05:19:39.317Z,8.99
2023-02-19T05:22:12.055Z,8.98
2023-02-19T05:24:46.168Z,8.91
2023-02-19T05:27:19.113Z,8.99
2023-02-19T05:29:52.076Z,8.98
2023-02-19T05:32:25.108Z,8.97
2023-02-19T05:34:57.848Z,8.98
2023-02-19T05:37:30.687Z,8.99
2023-02-19T05:40:05.558Z,8.95
2023-02-19T05:42:38.171Z,8.95
2023-02-19T05:45:10.907Z,8.92
2023-02-19T05:47:43.642Z,8.90
2023-02-19T05:50:16.539Z,8.91
2023-02-19T05:52:49.465Z,8.92
2023-02-19T05:55:24.009Z,8.89
2023-02-19T05:57:59.323Z,8.84
2023-02-19T06:00:33.693Z,8.88
2023-02-19T06:03:06.482Z,8.87
2023-02-19T06:05:39.403Z,8.85
2023-02-19T06:08:14.096Z,8.87
2023-02-19T06:10:48.231Z,8.83
2023-02-19T06:13:21.032Z,8.90
2023-02-19T06:15:53.775Z,8.75
2023-02-19T06:18:26.666Z,8.76
2023-02-19T06:21:01.919Z,8.87
2023-02-19T06:23:35.482Z,8.86
2023-02-19T06:26:12.566Z,8.89
2023-02-19T06:28:46.191Z,8.88
2023-02-19T06:31:20.072Z,8.64
2023-02-19T06:33:52.946Z,8.85
2023-02-19T06:36:26.020Z,8.83
2023-02-19T06:39:00.948Z,8.71
2023-02-19T06:41:35.091Z,8.80
2023-02-19T06:44:08.519Z,8.74
2023-02-19T06:46:42.987Z,8.75
2023-02-19T06:49:15.909Z,8.69
2023-02-19T06:51:48.986Z,8.77
2023-02-19T06:54:21.959Z,8.76
2023-02-19T06:56:58.845Z,8.77
2023-02-19T06:59:31.692Z,8.54
2023-02-19T07:02:04.552Z,8.82
2023-02-19T07:04:37.449Z,8.82
2023-02-19T07:07:12.488Z,8.78
2023-02-19T07:09:45.549Z,8.70
2023-02-19T07:12:19.789Z,8.82
2023-02-19T07:14:52.571Z,8.86
2023-02-19T07:17:25.504Z,8.76
2023-02-19T07:19:58.419Z,8.75
2023-02-19T07:22:31.283Z,8.87
2023-02-19T07:25:04.121Z,8.86
2023-02-19T07:27:38.422Z,8.88
2023-02-19T07:30:12.049Z,8.88
2023-02-19T07:32:45.875Z,8.84
2023-02-19T07:35:18.648Z,8.82
2023-02-19T07:37:51.424Z,8.81
2023-02-19T07:40:24.230Z,8.77
2023-02-19T07:43:00.294Z,8.71
2023-02-19T07:45:33.095Z,8.74
2023-02-19T07:48:05.985Z,8.66
2023-02-19T07:50:38.988Z,8.74
2023-02-19T07:53:11.774Z,8.80
2023-02-19T07:55:44.531Z,8.73
2023-02-19T07:58:19.091Z,8.71
2023-02-19T08:00:52.458Z,8.78
2023-02-19T08:03:24.420Z,8.80
2023-02-19T08:05:58.881Z,8.67
2023-02-19T08:08:31.757Z,8.74
2023-02-19T08:11:24.319Z,8.76
2023-02-19T08:13:58.489Z,8.77
2023-02-19T08:16:42.566Z,8.74
2023-02-19T08:19:16.283Z,8.85
2023-02-19T08:21:50.446Z,8.88
2023-02-19T08:24:23.348Z,9.00
2023-02-19T08:26:56.236Z,9.02
2023-02-19T08:29:30.302Z,9.06
2023-02-19T08:32:03.131Z,9.00
2023-02-19T08:34:37.037Z,8.94
2023-02-19T08:37:09.837Z,9.06
2023-02-19T08:39:42.682Z,9.06
2023-02-19T08:42:15.723Z,9.08
2023-02-19T08:44:49.864Z,9.07
2023-02-19T08:47:22.620Z,9.04
2023-02-19T08:49:55.418Z,8.89
2023-02-19T08:52:28.193Z,8.97
2023-02-19T08:55:01.141Z,8.98
2023-02-19T08:57:37.440Z,9.02
2023-02-19T09:00:13.402Z,9.11
2023-02-19T09:02:46.547Z,9.13
2023-02-19T09:05:19.533Z,9.22
2023-02-19T09:07:52.638Z,9.20
2023-02-19T09:10:25.536Z,9.44
2023-02-19T09:12:58.355Z,9.26
2023-02-19T09:15:33.278Z,9.33
2023-02-19T09:18:06.046Z,9.40
2023-02-19T09:20:38.843Z,9.48
2023-02-19T09:23:11.718Z,9.53
2023-02-19T09:25:44.484Z,9.38
2023-02-19T09:28:17.672Z,9.40
2023-02-19T09:30:51.900Z,9.35
2023-02-19T09:33:24.762Z,9.34
2023-02-19T09:36:00.181Z,9.21
2023-02-19T09:38:32.953Z,9.23
2023-02-19T09:41:09.258Z,9.37
2023-02-19T09:43:44.374Z,9.29
2023-02-19T09:46:26.017Z,9.28
2023-02-19T09:49:05.284Z,9.27
2023-02-19T09:51:41.090Z,9.40
2023-02-19T09:54:21.387Z,9.34
2023-02-19T09:56:56.189Z,9.21
2023-02-19T09:59:30.690Z,9.17
2023-02-19T10:02:12.581Z,9.22
2023-02-19T10:04:47.313Z,9.23
2023-02-19T10:07:23.373Z,9.16
2023-02-19T10:10:00.968Z,9.14
2023-02-19T10:12:35.063Z,8.99
2023-02-19T10:15:13.276Z,8.70
2023-02-19T10:17:47.364Z,8.16
2023-02-19T10:20:24.385Z,8.25
2023-02-19T10:23:03.204Z,8.40
2023-02-19T10:25:36.755Z,7.97
2023-02-19T10:28:15.848Z,7.98
2023-02-19T10:30:53.292Z,8.22
2023-02-19T10:33:28.386Z,8.08
2023-02-19T10:36:04.262Z,8.20
2023-02-19T10:38:43.376Z,7.86
2023-02-19T10:41:20.740Z,8.03
2023-02-19T10:43:56.597Z,8.11
2023-02-19T10:46:33.095Z,8.16
2023-02-19T10:49:20.610Z,8.24
2023-02-19T10:51:54.930Z,8.20
2023-02-19T10:54:31.163Z,8.40
2023-02-19T10:57:25.620Z,8.35
2023-02-19T11:00:01.137Z,8.55
2023-02-19T11:02:34.028Z,8.26
2023-02-19T11:05:19.750Z,8.21
2023-02-19T11:07:55.914Z,8.45
2023-02-19T11:10:31.044Z,8.37
2023-02-19T11:13:07.095Z,8.52
2023-02-19T11:15:40.204Z,8.64
2023-02-19T11:18:22.551Z,8.06
2023-02-19T11:20:59.966Z,8.17
2023-02-19T11:23:36.934Z,8.09
2023-02-19T11:26:19.301Z,8.43
2023-02-19T11:28:57.931Z,8.49
2023-02-19T11:31:32.602Z,8.45
2023-02-19T11:34:29.066Z,8.39
2023-02-19T11:37:14.529Z,8.32
2023-02-19T11:39:48.451Z,8.29
2023-02-19T11:42:41.758Z,8.40
2023-02-19T11:45:26.118Z,8.09
2023-02-19T11:48:33.138Z,8.25
2023-02-19T11:51:32.508Z,8.34
2023-02-19T11:54:19.797Z,8.43
2023-02-19T11:57:03.725Z,8.49
2023-02-19T11:59:43.738Z,8.43
2023-02-19T12:02:32.513Z,8.35
2023-02-19T12:05:21.737Z,8.48
2023-02-19T12:08:32.855Z,8.61
2023-02-19T12:11:31.473Z,8.61
2023-02-19T12:14:26.470Z,8.51
2023-02-19T12:17:08.902Z,8.56
2023-02-19T12:20:14.957Z,8.64
2023-02-19T12:22:58.809Z,8.48
2023-02-19T12:25:47.984Z,8.69
2023-02-19T12:28:50.578Z,8.65
2023-02-19T12:31:41.548Z,8.56
2023-02-19T12:34:36.347Z,8.56
2023-02-19T12:37:23.495Z,8.70
2023-02-19T12:40:15.033Z,8.42
2023-02-19T12:42:58.222Z,8.67
2023-02-19T12:45:37.425Z,8.78
2023-02-19T12:48:17.679Z,8.76
2023-02-19T12:50:56.102Z,9.00
2023-02-19T12:53:39.980Z,8.86
2023-02-19T12:56:18.399Z,8.54
2023-02-19T12:58:55.673Z,8.78
2023-02-19T13:01:34.200Z,8.86
2023-02-19T13:04:24.284Z,8.92
2023-02-19T13:07:02.324Z,9.14
2023-02-19T13:09:39.338Z,8.91
2023-02-19T13:12:16.229Z,8.91
2023-02-19T13:14:52.642Z,8.88
2023-02-19T13:17:32.821Z,8.77
2023-02-19T13:20:19.254Z,9.06
2023-02-19T13:23:18.878Z,8.91
2023-02-19T13:26:14.551Z,8.96
2023-02-19T13:29:08.486Z,8.44
2023-02-19T13:31:56.006Z,8.75
2023-02-19T13:34:43.069Z,8.63
2023-02-19T13:37:17.695Z,8.77
2023-02-19T13:39:52.999Z,8.55
2023-02-19T13:42:28.547Z,8.84
2023-02-19T13:45:02.630Z,8.56
2023-02-19T13:48:00.645Z,8.81
2023-02-19T13:50:35.809Z,8.86
2023-02-19T13:53:41.881Z,8.55
2023-02-19T13:56:42.062Z,8.59
2023-02-19T13:59:34.320Z,8.86
2023-02-19T14:02:17.555Z,8.78
2023-02-19T14:05:00.043Z,8.87
2023-02-19T14:07:49.306Z,8.61
2023-02-19T14:10:57.563Z,8.39
2023-02-19T14:14:06.428Z,8.47
2023-02-19T14:17:04.653Z,8.57
2023-02-19T14:19:52.864Z,8.16
2023-02-19T14:23:01.384Z,8.30
2023-02-19T14:25:59.244Z,8.48
2023-02-19T14:28:38.322Z,8.19
2023-02-19T14:31:19.584Z,8.25
2023-02-19T14:33:54.396Z,8.22
2023-02-19T14:36:48.725Z,8.21
2023-02-19T14:39:25.456Z,8.29
2023-02-19T14:42:01.273Z,8.44
2023-02-19T14:44:46.499Z,8.65
2023-02-19T14:47:23.094Z,8.50
2023-02-19T14:50:01.453Z,8.50
2023-02-19T14:52:40.120Z,8.92
2023-02-19T14:55:21.602Z,8.66
2023-02-19T14:57:56.083Z,8.60
2023-02-19T15:00:31.045Z,8.73
2023-02-19T15:03:05.596Z,8.40
2023-02-19T15:05:38.695Z,8.47
2023-02-19T15:08:19.300Z,8.60
2023-02-19T15:10:53.572Z,8.50
2023-02-19T15:13:29.186Z,8.52
2023-02-19T15:16:02.150Z,8.50
2023-02-19T15:18:37.478Z,8.72
2023-02-19T15:21:23.652Z,8.33
2023-02-19T15:23:58.657Z,8.50
2023-02-19T15:26:35.396Z,8.44
2023-02-19T15:29:11.982Z,8.34
2023-02-19T15:31:49.134Z,8.28
2023-02-19T15:34:23.873Z,8.10
2023-02-19T15:36:59.476Z,8.14
2023-02-19T15:39:36.678Z,8.04
2023-02-19T15:42:19.133Z,7.93
2023-02-19T15:44:57.455Z,7.93
2023-02-19T15:47:38.003Z,8.03
2023-02-19T15:50:17.005Z,7.91
2023-02-19T15:52:55.450Z,8.06
2023-02-19T15:55:36.871Z,8.15
2023-02-19T15:58:17.938Z,8.03
2023-02-19T16:00:55.072Z,8.07
2023-02-19T16:03:29.644Z,7.63
2023-02-19T16:06:05.142Z,7.50
2023-02-19T16:08:39.520Z,7.46
2023-02-19T16:11:30.273Z,7.65
2023-02-19T16:14:30.450Z,7.81
2023-02-19T16:17:14.718Z,7.66
2023-02-19T16:19:51.931Z,7.62
2023-02-19T16:22:27.370Z,7.60
2023-02-19T16:25:03.237Z,7.58
2023-02-19T16:27:38.527Z,7.58
2023-02-19T16:30:28.081Z,7.67
2023-02-19T16:33:23.587Z,7.60
2023-02-19T16:35:56.416Z,7.58
2023-02-19T16:38:29.342Z,7.51
2023-02-19T16:41:13.947Z,7.53
2023-02-19T16:43:47.042Z,7.64
2023-02-19T16:46:21.372Z,7.61
2023-02-19T16:48:55.369Z,7.53
2023-02-19T16:51:28.724Z,7.53
2023-02-19T16:54:01.507Z,7.48
2023-02-19T16:56:34.388Z,7.41
2023-02-19T16:59:07.913Z,7.42
2023-02-19T17:01:42.347Z,7.52
2023-02-19T17:04:15.883Z,7.43
2023-02-19T17:06:48.755Z,7.48
2023-02-19T17:09:21.566Z,7.42
2023-02-19T17:11:54.721Z,7.33
2023-02-19T17:14:27.576Z,7.24
2023-02-19T17:17:02.302Z,7.07
2023-02-19T17:19:35.236Z,7.08
2023-02-19T17:22:08.770Z,6.97
2023-02-19T17:24:42.087Z,7.01
2023-02-19T17:27:15.276Z,6.85
2023-02-19T17:29:48.029Z,6.91
2023-02-19T17:32:25.223Z,6.99
2023-02-19T17:34:58.270Z,6.83
2023-02-19T17:37:31.030Z,6.76
2023-02-19T17:40:03.912Z,6.77
2023-02-19T17:42:36.914Z,6.82
2023-02-19T17:45:10.449Z,6.90
2023-02-19T17:47:44.898Z,6.77
2023-02-19T17:50:19.655Z,6.72
2023-02-19T17:52:52.665Z,6.68
2023-02-19T17:55:26.357Z,6.70
2023-02-19T17:57:59.253Z,6.81
2023-02-19T18:00:32.596Z,6.65
2023-02-19T18:03:08.706Z,6.71
2023-02-19T18:05:41.510Z,6.73
2023-02-19T18:08:14.509Z,6.72
2023-02-19T18:10:47.352Z,6.70
2023-02-19T18:13:20.201Z,6.84
2023-02-19T18:15:53.428Z,6.91
2023-02-19T18:18:27.675Z,6.76
2023-02-19T18:21:00.451Z,6.81
2023-02-19T18:23:33.331Z,6.79
2023-02-19T18:26:10.191Z,6.81
2023-02-19T18:28:43.005Z,6.85
2023-02-19T18:31:16.189Z,6.83
2023-02-19T18:33:50.814Z,6.85
2023-02-19T18:36:23.609Z,6.77
2023-02-19T18:38:56.462Z,6.82
2023-02-19T18:41:29.281Z,6.76
2023-02-19T18:44:02.033Z,6.77
2023-02-19T18:46:35.214Z,6.80
2023-02-19T18:49:09.406Z,6.74
2023-02-19T18:51:43.352Z,6.76
2023-02-19T18:54:16.304Z,6.79
2023-02-19T18:56:49.253Z,6.58
2023-02-19T18:59:22.904Z,6.56
2023-02-19T19:01:55.921Z,6.54
2023-02-19T19:04:30.083Z,6.64
2023-02-19T19:07:03.413Z,6.50
2023-02-19T19:09:36.358Z,6.59
2023-02-19T19:12:09.176Z,6.54
2023-02-19T19:14:42.227Z,6.59
2023-02-19T19:17:15.077Z,6.44
2023-02-19T19:19:49.276Z,6.46
2023-02-19T19:22:22.818Z,6.55
2023-02-19T19:24:55.545Z,6.51
2023-02-19T19:27:28.385Z,6.54
2023-02-19T19:30:01.265Z,6.56
2023-02-19T19:32:34.168Z,6.45
2023-02-19T19:35:09.305Z,6.36
2023-02-19T19:37:42.084Z,6.47
2023-02-19T19:40:16.836Z,6.41
2023-02-19T19:42:52.130Z,6.41
2023-02-19T19:45:24.898Z,6.46
2023-02-19T19:47:57.792Z,6.48
2023-02-19T19:50:32.044Z,6.49
2023-02-19T19:53:04.837Z,6.46
2023-02-19T19:55:37.655Z,6.42
2023-02-19T19:58:10.510Z,6.49
2023-02-19T20:00:43.598Z,6.44
2023-02-19T20:03:16.440Z,6.42
2023-02-19T20:05:51.139Z,6.40
2023-02-19T20:08:24.073Z,6.40
2023-02-19T20:10:57.024Z,6.42
2023-02-19T20:13:30.916Z,6.37
2023-02-19T20:16:03.856Z,6.41
2023-02-19T20:18:36.660Z,6.44
2023-02-19T20:21:12.086Z,6.37
2023-02-19T20:23:45.022Z,6.36
2023-02-19T20:26:23.168Z,6.45
2023-02-19T20:28:56.462Z,6.35
2023-02-19T20:31:29.416Z,6.45
2023-02-19T20:34:02.202Z,6.34
2023-02-19T20:36:43.412Z,6.34
2023-02-19T20:39:16.896Z,6.35
2023-02-19T20:41:51.766Z,6.30
2023-02-19T20:44:25.262Z,6.31
2023-02-19T20:47:00.057Z,6.26
2023-02-19T20:49:34.140Z,6.23
2023-02-19T20:52:08.610Z,6.15
2023-02-19T20:54:42.573Z,6.22
2023-02-19T20:57:15.687Z,6.17
2023-02-19T20:59:48.459Z,6.07
2023-02-19T21:02:24.510Z,6.15
2023-02-19T21:04:58.412Z,6.02
2023-02-19T21:07:32.566Z,6.07
2023-02-19T21:10:06.162Z,5.98
2023-02-19T21:12:39.058Z,6.00
2023-02-19T21:15:11.819Z,5.98
2023-02-19T21:17:46.275Z,5.97
2023-02-19T21:20:19.228Z,5.98
2023-02-19T21:22:53.553Z,5.93
2023-02-19T21:25:26.549Z,5.87
2023-02-19T21:27:59.326Z,5.92
2023-02-19T21:30:32.141Z,5.86
2023-02-19T21:33:05.330Z,5.89
2023-02-19T21:35:38.256Z,5.89
2023-02-19T21:38:12.688Z,5.94
2023-02-19T21:40:45.487Z,5.94
2023-02-19T21:43:18.254Z,5.99
2023-02-19T21:45:51.050Z,5.99
2023-02-19T21:48:24.246Z,5.95
2023-02-19T21:50:57.022Z,6.01
2023-02-19T21:53:31.305Z,5.99
2023-02-19T21:56:04.281Z,5.64
2023-02-19T21:58:37.362Z,5.88
2023-02-19T22:01:10.227Z,5.92
2023-02-19T22:03:43.132Z,5.90
2023-02-19T22:06:16.620Z,5.89
2023-02-19T22:08:50.787Z,5.88
2023-02-19T22:11:24.006Z,5.77
2023-02-19T22:13:56.900Z,5.90
2023-02-19T22:16:29.937Z,5.83
2023-02-19T22:19:02.765Z,5.92
2023-02-19T22:21:35.759Z,5.88
2023-02-19T22:24:17.181Z,5.77
2023-02-19T22:26:50.702Z,5.85
2023-02-19T22:29:23.683Z,5.66
2023-02-19T22:31:56.471Z,5.75
2023-02-19T22:34:29.279Z,5.77
2023-02-19T22:37:02.025Z,5.74
2023-02-19T22:39:36.280Z,5.68
2023-02-19T22:42:09.039Z,5.66
2023-02-19T22:44:43.484Z,5.55
2023-02-19T22:47:18.822Z,5.61
2023-02-19T22:49:51.848Z,5.54
2023-02-19T22:52:27.886Z,5.55
2023-02-19T22:55:02.034Z,5.51
2023-02-19T22:57:36.300Z,5.49
2023-02-19T23:00:10.501Z,5.46
2023-02-19T23:02:43.303Z,5.34
2023-02-19T23:05:16.648Z,5.21
2023-02-19T23:07:50.573Z,5.39
2023-02-19T23:10:24.963Z,5.35
2023-02-19T23:12:58.008Z,5.33
2023-02-19T23:15:30.802Z,5.32
2023-02-19T23:18:04.482Z,5.31
2023-02-19T23:20:37.495Z,5.25
2023-02-19T23:23:10.329Z,5.31
2023-02-19T23:25:44.379Z,5.29
2023-02-19T23:28:17.168Z,5.33
2023-02-19T23:30:50.089Z,5.26
2023-02-19T23:33:22.965Z,5.22
2023-02-19T23:35:55.982Z,5.25
2023-02-19T23:38:29.026Z,5.29
2023-02-19T23:41:03.339Z,5.22
2023-02-19T23:43:36.107Z,5.22
2023-02-19T23:46:09.047Z,5.21
2023-02-19T23:48:41.870Z,5.25
2023-02-19T23:51:15.001Z,5.19
2023-02-19T23:53:47.913Z,5.21
2023-02-19T23:56:25.477Z,5.15
2023-02-19T23:58:58.495Z,5.18
